createdAt,value
2023-04-21T00:00:55.087Z,60.45
2023-04-21T00:03:23.983Z,60.09
2023-04-21T00:05:51.452Z,58.97
2023-04-21T00:08:19.021Z,59.46
2023-04-21T00:10:46.875Z,58.72
2023-04-21T00:13:14.329Z,59.65
2023-04-21T00:15:41.338Z,58.85
2023-04-21T00:18:08.037Z,58.86
2023-04-21T00:20:35.457Z,57.77
2023-04-21T00:23:02.242Z,56.99
2023-04-21T00:25:28.754Z,58.97
2023-04-21T00:27:55.302Z,57.47
2023-04-21T00:30:22.092Z,56.40
2023-04-21T00:32:48.707Z,57.76
2023-04-21T00:35:15.330Z,58.84
2023-04-21T00:37:41.820Z,57.22
2023-04-21T00:40:09.290Z,56.84
2023-04-21T00:42:35.850Z,56.37
2023-04-21T00:45:03.906Z,55.97
2023-04-21T00:47:31.050Z,55.96
2023-04-21T00:54:05.462Z,56.21
2023-04-21T00:56:33.550Z,56.59
2023-04-21T00:59:00.920Z,55.61
2023-04-21T01:01:32.012Z,55.18
2023-04-21T01:04:00.027Z,55.23
2023-04-21T01:06:32.340Z,55.03
2023-04-21T01:08:58.850Z,54.54
2023-04-21T01:11:26.378Z,55.16
2023-04-21T01:13:56.727Z,55.48
2023-04-21T01:16:24.233Z,54.74
2023-04-21T01:18:53.320Z,55.73
2023-04-21T01:21:21.613Z,55.14
2023-04-21T01:23:48.186Z,54.83
2023-04-21T01:26:18.357Z,55.11
2023-04-21T01:28:45.016Z,55.50
2023-04-21T01:31:12.050Z,55.17
2023-04-21T01:33:38.673Z,54.30
2023-04-21T01:36:05.601Z,54.27
2023-04-21T01:38:32.114Z,54.35
2023-04-21T01:40:58.783Z,55.23
2023-04-21T01:43:25.796Z,55.28
2023-04-21T01:45:53.366Z,54.63
2023-04-21T01:48:20.088Z,54.90
2023-04-21T01:50:46.774Z,56.37
2023-04-21T01:53:13.571Z,56.43
2023-04-21T01:55:40.243Z,55.47
2023-04-21T01:58:07.700Z,54.80
2023-04-21T02:00:34.296Z,54.48
2023-04-21T02:03:00.995Z,54.82
2023-04-21T02:05:27.755Z,54.83
2023-04-21T02:07:54.684Z,55.03
2023-04-21T02:10:21.390Z,54.59
2023-04-21T02:12:48.077Z,54.53
2023-04-21T02:15:14.717Z,53.97
2023-04-21T02:17:42.898Z,53.89
2023-04-21T02:20:12.023Z,53.92
2023-04-21T02:22:38.898Z,53.70
2023-04-21T02:25:06.162Z,53.97
2023-04-21T02:27:32.726Z,54.04
2023-04-21T02:29:59.675Z,54.16
2023-04-21T02:32:26.519Z,54.82
2023-04-21T02:34:53.336Z,54.86
2023-04-21T02:37:21.141Z,55.23
2023-04-21T02:39:48.121Z,56.28
2023-04-21T02:42:14.708Z,56.74
2023-04-21T02:44:42.762Z,56.99
2023-04-21T02:47:09.486Z,56.78
2023-04-21T02:49:41.004Z,58.43
2023-04-21T02:52:07.920Z,58.53
2023-04-21T02:54:34.501Z,58.33
2023-04-21T02:57:02.033Z,58.51
2023-04-21T02:59:29.084Z,58.60
2023-04-21T03:01:55.849Z,58.89
2023-04-21T03:04:24.572Z,58.56
2023-04-21T03:06:52.378Z,59.05
2023-04-21T03:09:19.235Z,60.49
2023-04-21T03:11:45.966Z,60.76
2023-04-21T03:14:13.001Z,60.98
2023-04-21T03:16:39.683Z,61.48
2023-04-21T03:19:06.515Z,61.63
2023-04-21T03:21:33.130Z,61.44
2023-04-21T03:23:59.673Z,62.57
2023-04-21T03:26:26.378Z,62.16
2023-04-21T03:28:53.189Z,62.82
2023-04-21T03:31:19.849Z,62.26
2023-04-21T03:33:46.410Z,63.31
2023-04-21T03:36:13.069Z,63.28
2023-04-21T03:38:39.608Z,64.33
2023-04-21T03:41:08.831Z,65.27
2023-04-21T03:43:36.239Z,65.42
2023-04-21T03:46:03.372Z,63.93
2023-04-21T03:48:30.048Z,64.30
2023-04-21T03:50:56.668Z,65.91
2023-04-21T03:53:23.370Z,67.21
2023-04-21T03:55:51.100Z,65.33
2023-04-21T03:58:18.664Z,65.92
2023-04-21T04:00:45.330Z,65.37
2023-04-21T04:03:12.194Z,65.74
2023-04-21T04:05:39.071Z,65.50
2023-04-21T04:08:06.665Z,65.33
2023-04-21T04:10:33.181Z,63.96
2023-04-21T04:13:00.113Z,62.86
2023-04-21T04:15:27.313Z,63.35
2023-04-21T04:17:53.986Z,63.08
2023-04-21T04:20:20.649Z,64.03
2023-04-21T04:22:47.500Z,63.98
2023-04-21T04:25:16.933Z,64.24
2023-04-21T04:27:46.532Z,64.07
2023-04-21T04:30:14.020Z,66.04
2023-04-21T04:32:41.481Z,66.81
2023-04-21T04:35:10.164Z,69.40
2023-04-21T04:37:37.490Z,72.02
2023-04-21T04:40:12.320Z,71.93
2023-04-21T04:42:40.139Z,71.39
2023-04-21T04:45:08.766Z,69.84
2023-04-21T04:47:36.000Z,70.31
2023-04-21T04:50:03.494Z,69.90
2023-04-21T04:52:30.357Z,69.98
2023-04-21T04:54:56.929Z,69.81
2023-04-21T04:57:23.580Z,70.13
2023-04-21T04:59:55.397Z,70.25
2023-04-21T05:02:24.476Z,69.68
2023-04-21T05:04:51.903Z,69.90
2023-04-21T05:07:18.813Z,69.58
2023-04-21T05:09:46.118Z,69.18
2023-04-21T05:12:12.880Z,69.54
2023-04-21T05:14:39.719Z,67.94
2023-04-21T05:17:06.427Z,67.04
2023-04-21T05:19:36.288Z,67.50
2023-04-21T05:22:03.059Z,68.35
2023-04-21T05:24:29.615Z,68.86
2023-04-21T05:26:56.393Z,67.77
2023-04-21T05:29:22.963Z,67.66
2023-04-21T05:31:49.601Z,67.68
2023-04-21T05:34:16.420Z,67.49
2023-04-21T05:36:43.219Z,66.57
2023-04-21T05:39:09.900Z,66.44
2023-04-21T05:41:36.658Z,66.69
2023-04-21T05:44:03.225Z,66.83
2023-04-21T05:46:30.350Z,67.13
2023-04-21T05:48:57.162Z,66.93
2023-04-21T05:51:23.781Z,66.83
2023-04-21T05:53:50.511Z,67.41
2023-04-21T05:56:17.336Z,67.17
2023-04-21T05:58:43.851Z,66.80
2023-04-21T06:01:10.724Z,66.80
2023-04-21T06:03:37.380Z,66.57
2023-04-21T06:06:06.041Z,66.51
2023-04-21T06:08:32.939Z,66.30
2023-04-21T06:10:59.554Z,66.23
2023-04-21T06:13:27.553Z,66.41
2023-04-21T06:15:55.062Z,66.58
2023-04-21T06:18:21.698Z,66.04
2023-04-21T06:20:52.214Z,65.99
2023-04-21T06:23:20.649Z,65.91
2023-04-21T06:25:47.672Z,65.54
2023-04-21T06:28:14.594Z,65.60
2023-04-21T06:30:41.155Z,64.97
2023-04-21T06:33:08.188Z,64.68
2023-04-21T06:35:34.756Z,63.99
2023-04-21T06:38:01.523Z,63.58
2023-04-21T06:40:28.245Z,63.13
2023-04-21T06:42:54.757Z,63.06
2023-04-21T06:45:21.443Z,62.71
2023-04-21T06:47:48.067Z,62.28
2023-04-21T06:50:14.579Z,62.09
2023-04-21T06:52:41.371Z,61.53
2023-04-21T06:55:08.368Z,61.60
2023-04-21T06:57:35.036Z,61.59
2023-04-21T07:00:01.778Z,60.82
2023-04-21T07:02:28.606Z,60.83
2023-04-21T07:04:55.638Z,60.95
2023-04-21T07:07:22.247Z,61.01
2023-04-21T07:09:48.977Z,61.25
2023-04-21T07:12:16.012Z,60.77
2023-04-21T07:14:42.821Z,60.92
2023-04-21T07:17:09.862Z,60.44
2023-04-21T07:19:37.130Z,60.59
2023-04-21T07:22:04.131Z,60.41
2023-04-21T07:24:31.088Z,59.29
2023-04-21T07:26:58.078Z,59.96
2023-04-21T07:29:24.711Z,59.65
2023-04-21T07:31:51.828Z,59.32
2023-04-21T07:34:18.398Z,59.61
2023-04-21T07:36:45.562Z,58.88
2023-04-21T07:39:12.374Z,58.37
2023-04-21T07:41:38.952Z,59.11
2023-04-21T07:44:05.965Z,58.96
2023-04-21T07:46:32.652Z,58.09
2023-04-21T07:49:01.397Z,58.37
2023-04-21T07:51:29.666Z,57.76
2023-04-21T07:53:56.294Z,58.54
2023-04-21T07:56:23.035Z,59.53
2023-04-21T07:58:49.800Z,59.22
2023-04-21T08:01:16.856Z,57.50
2023-04-21T08:03:43.813Z,57.56
2023-04-21T08:06:11.017Z,57.44
2023-04-21T08:08:37.837Z,57.08
2023-04-21T08:11:04.553Z,57.05
2023-04-21T08:13:32.298Z,56.43
2023-04-21T08:16:00.227Z,57.02
2023-04-21T08:18:26.896Z,57.57
2023-04-21T08:20:53.643Z,56.57
2023-04-21T08:23:20.419Z,56.89
2023-04-21T08:25:47.152Z,57.08
2023-04-21T08:28:15.570Z,57.52
2023-04-21T08:30:42.743Z,55.63
2023-04-21T08:33:13.574Z,55.02
2023-04-21T08:35:54.836Z,54.91
2023-04-21T08:38:28.314Z,55.30
2023-04-21T08:40:56.233Z,53.72
2023-04-21T08:43:23.050Z,54.20
2023-04-21T08:45:50.381Z,53.74
2023-04-21T08:48:20.068Z,53.14
2023-04-21T08:50:48.708Z,53.64
2023-04-21T08:53:16.210Z,54.93
2023-04-21T08:55:43.353Z,54.29
2023-04-21T08:58:10.154Z,54.90
2023-04-21T09:00:36.893Z,54.93
2023-04-21T09:03:10.688Z,54.34
2023-04-21T09:05:43.322Z,54.99
2023-04-21T09:08:12.701Z,55.14
2023-04-21T09:10:49.349Z,55.28
2023-04-21T09:13:18.106Z,54.47
2023-04-21T09:15:49.860Z,55.06
2023-04-21T09:18:17.462Z,55.06
2023-04-21T09:20:45.389Z,54.64
2023-04-21T09:23:13.037Z,54.91
2023-04-21T09:25:41.228Z,55.25
2023-04-21T09:28:12.866Z,55.30
2023-04-21T09:30:41.127Z,55.43
2023-04-21T09:33:20.095Z,55.55
2023-04-21T09:35:54.790Z,55.93
2023-04-21T09:38:22.305Z,56.48
2023-04-21T09:40:59.049Z,56.86
2023-04-21T09:43:26.149Z,56.22
2023-04-21T09:45:54.120Z,57.07
2023-04-21T09:48:22.654Z,56.89
2023-04-21T09:53:22.019Z,55.68
2023-04-21T09:55:51.707Z,54.84
2023-04-21T09:58:20.649Z,55.44
2023-04-21T10:00:47.550Z,54.62
2023-04-21T10:03:14.591Z,54.69
2023-04-21T10:05:43.025Z,53.64
2023-04-21T10:08:11.661Z,52.40
2023-04-21T10:10:39.005Z,51.60
2023-04-21T10:13:06.299Z,49.40
2023-04-21T10:15:36.012Z,49.10
2023-04-21T10:18:22.105Z,46.84
2023-04-21T10:21:03.998Z,44.92
2023-04-21T10:23:36.612Z,42.50
2023-04-21T10:26:03.540Z,42.06
2023-04-21T10:28:41.044Z,41.25
2023-04-21T10:31:29.530Z,40.47
2023-04-21T10:34:17.314Z,40.56
2023-04-21T10:36:47.111Z,42.23
2023-04-21T10:39:38.616Z,40.59
2023-04-21T10:42:19.816Z,42.35
2023-04-21T10:44:53.726Z,42.05
2023-04-21T10:47:45.428Z,41.01
2023-04-21T10:50:17.905Z,39.94
2023-04-21T10:52:54.146Z,38.74
2023-04-21T10:55:22.071Z,37.64
2023-04-21T10:57:49.515Z,36.30
2023-04-21T11:00:19.188Z,35.56
2023-04-21T11:02:57.192Z,33.90
2023-04-21T11:05:28.584Z,32.74
2023-04-21T11:08:05.983Z,33.26
2023-04-21T11:10:55.333Z,32.93
2023-04-21T11:13:27.491Z,33.64
2023-04-21T11:16:06.396Z,34.74
2023-04-21T11:18:40.106Z,34.95
2023-04-21T11:21:10.360Z,37.62
2023-04-21T11:23:41.389Z,35.99
2023-04-21T11:26:08.232Z,36.42
2023-04-21T11:28:34.880Z,35.17
2023-04-21T11:31:01.493Z,34.80
2023-04-21T11:33:36.806Z,34.07
2023-04-21T11:36:05.792Z,33.18
2023-04-21T11:38:40.698Z,35.49
2023-04-21T11:41:09.989Z,34.25
2023-04-21T11:43:37.509Z,32.92
2023-04-21T11:46:23.880Z,33.64
2023-04-21T11:49:04.842Z,35.17
2023-04-21T11:51:36.234Z,35.59
2023-04-21T11:54:04.939Z,38.20
2023-04-21T11:56:38.441Z,40.61
2023-04-21T11:59:10.019Z,39.48
2023-04-21T12:01:44.179Z,40.77
2023-04-21T12:04:15.838Z,40.27
2023-04-21T12:06:42.640Z,39.19
2023-04-21T12:09:17.313Z,39.54
2023-04-21T12:11:51.127Z,38.61
2023-04-21T12:14:19.653Z,38.18
2023-04-21T12:16:50.421Z,37.56
2023-04-21T12:19:24.305Z,37.21
2023-04-21T12:21:56.177Z,36.52
2023-04-21T12:24:23.954Z,35.72
2023-04-21T12:26:50.619Z,34.93
2023-04-21T12:29:17.689Z,35.37
2023-04-21T12:31:44.281Z,34.35
2023-04-21T12:34:11.337Z,34.43
2023-04-21T12:36:38.765Z,34.82
2023-04-21T12:39:06.145Z,34.06
2023-04-21T12:41:34.866Z,33.91
2023-04-21T12:44:01.567Z,34.09
2023-04-21T12:46:28.518Z,33.96
2023-04-21T12:48:56.127Z,34.60
2023-04-21T12:51:22.885Z,34.86
2023-04-21T12:53:49.897Z,34.87
2023-04-21T12:56:16.828Z,34.80
2023-04-21T12:58:43.558Z,34.12
2023-04-21T13:01:12.140Z,34.09
2023-04-21T13:03:39.207Z,35.89
2023-04-21T13:06:06.351Z,37.81
2023-04-21T13:08:33.010Z,39.53
2023-04-21T13:10:59.678Z,39.32
2023-04-21T13:13:26.783Z,38.34
2023-04-21T13:15:53.772Z,40.20
2023-04-21T13:18:20.536Z,39.10
2023-04-21T13:20:47.064Z,39.55
2023-04-21T13:23:14.766Z,38.43
2023-04-21T13:25:41.781Z,38.09
2023-04-21T13:28:08.462Z,38.72
2023-04-21T13:30:36.264Z,37.29
2023-04-21T13:33:03.993Z,37.86
2023-04-21T13:35:30.774Z,36.28
2023-04-21T13:37:57.352Z,36.80
2023-04-21T13:40:23.974Z,35.66
2023-04-21T13:42:50.732Z,35.12
2023-04-21T13:45:18.741Z,35.08
2023-04-21T13:47:45.369Z,36.37
2023-04-21T13:50:13.112Z,35.48
2023-04-21T13:52:39.731Z,35.37
2023-04-21T13:55:06.822Z,34.63
2023-04-21T13:57:33.416Z,34.43
2023-04-21T14:00:00.066Z,35.21
2023-04-21T14:02:26.939Z,34.80
2023-04-21T14:04:54.349Z,34.36
2023-04-21T14:07:22.625Z,34.53
2023-04-21T14:09:51.719Z,36.01
2023-04-21T14:12:18.967Z,35.98
2023-04-21T14:14:45.589Z,36.07
2023-04-21T14:17:12.747Z,35.96
2023-04-21T14:19:39.491Z,36.84
2023-04-21T14:22:06.389Z,37.02
2023-04-21T14:24:32.997Z,36.81
2023-04-21T14:26:59.644Z,37.55
2023-04-21T14:29:26.177Z,38.25
2023-04-21T14:31:57.634Z,38.56
2023-04-21T14:34:26.040Z,38.36
2023-04-21T14:36:53.548Z,38.46
2023-04-21T14:39:20.190Z,38.70
2023-04-21T14:41:46.692Z,38.79
2023-04-21T14:44:13.237Z,38.34
2023-04-21T14:46:39.962Z,38.63
2023-04-21T14:49:06.988Z,38.58
2023-04-21T14:51:33.699Z,38.58
2023-04-21T14:54:00.375Z,38.64
2023-04-21T14:56:27.071Z,38.41
2023-04-21T14:58:53.641Z,39.46
2023-04-21T15:01:20.269Z,40.30
2023-04-21T15:03:47.189Z,40.33
2023-04-21T15:06:16.105Z,39.86
2023-04-21T15:08:42.840Z,39.73
2023-04-21T15:11:09.887Z,38.65
2023-04-21T15:13:36.482Z,38.77
2023-04-21T15:16:03.405Z,38.05
2023-04-21T15:18:29.874Z,37.86
2023-04-21T15:20:56.343Z,37.25
2023-04-21T15:23:22.965Z,37.67
2023-04-21T15:25:49.466Z,37.26
2023-04-21T15:28:15.976Z,37.26
2023-04-21T15:30:42.517Z,36.75
2023-04-21T15:33:11.331Z,36.50
2023-04-21T15:35:37.989Z,37.42
2023-04-21T15:38:06.328Z,37.18
2023-04-21T15:40:32.939Z,37.36
2023-04-21T15:42:59.468Z,37.05
2023-04-21T15:45:26.134Z,37.12
2023-04-21T15:47:53.791Z,37.19
2023-04-21T15:50:20.664Z,37.33
2023-04-21T15:52:47.210Z,37.59
2023-04-21T15:55:13.889Z,36.96
2023-04-21T15:57:40.399Z,37.21
2023-04-21T16:00:07.970Z,37.74
2023-04-21T16:02:34.752Z,37.54
2023-04-21T16:05:02.390Z,37.25
2023-04-21T16:07:29.720Z,37.50
2023-04-21T16:09:56.331Z,37.39
2023-04-21T16:12:24.319Z,37.63
2023-04-21T16:14:57.640Z,36.86
2023-04-21T16:17:31.998Z,36.47
2023-04-21T16:19:58.690Z,35.99
2023-04-21T16:22:25.640Z,35.74
2023-04-21T16:24:53.180Z,36.25
2023-04-21T16:27:19.929Z,36.33
2023-04-21T16:29:46.715Z,36.31
2023-04-21T16:32:13.246Z,37.66
2023-04-21T16:34:40.801Z,37.94
2023-04-21T16:37:08.165Z,38.34
2023-04-21T16:39:34.653Z,39.16
2023-04-21T16:42:02.066Z,40.00
2023-04-21T16:44:29.169Z,39.85
2023-04-21T16:46:55.764Z,40.36
2023-04-21T16:49:22.840Z,43.22
2023-04-21T16:51:49.411Z,46.58
2023-04-21T16:54:15.899Z,49.59
2023-04-21T16:56:42.425Z,53.15
2023-04-21T16:59:09.104Z,54.67
2023-04-21T17:01:35.851Z,57.55
2023-04-21T17:04:02.831Z,61.89
2023-04-21T17:06:30.033Z,62.26
2023-04-21T17:08:59.807Z,64.68
2023-04-21T17:11:27.654Z,63.96
2023-04-21T17:13:54.789Z,65.13
2023-04-21T17:16:21.626Z,65.81
2023-04-21T17:18:48.213Z,64.02
2023-04-21T17:21:14.790Z,61.82
2023-04-21T17:23:41.426Z,61.54
2023-04-21T17:26:08.799Z,62.44
2023-04-21T17:28:38.188Z,63.35
2023-04-21T17:31:15.033Z,65.98
2023-04-21T17:33:42.472Z,65.77
2023-04-21T17:36:09.410Z,64.38
2023-04-21T17:38:36.193Z,67.25
2023-04-21T17:41:04.513Z,69.16
2023-04-21T17:43:31.053Z,68.15
2023-04-21T17:45:57.643Z,66.75
2023-04-21T17:48:24.158Z,65.97
2023-04-21T17:50:51.397Z,66.12
2023-04-21T17:53:19.032Z,67.24
2023-04-21T17:55:45.629Z,65.96
2023-04-21T17:58:12.586Z,66.70
2023-04-21T18:00:40.519Z,69.01
2023-04-21T18:03:07.290Z,67.30
2023-04-21T18:05:34.165Z,67.61
2023-04-21T18:08:00.828Z,67.45
2023-04-21T18:10:29.582Z,66.95
2023-04-21T18:12:56.381Z,66.74
2023-04-21T18:15:22.928Z,66.50
2023-04-21T18:17:49.569Z,67.33
2023-04-21T18:20:16.260Z,67.10
2023-04-21T18:22:43.755Z,67.48
2023-04-21T18:25:11.765Z,67.63
2023-04-21T18:27:39.327Z,67.80
2023-04-21T18:30:06.691Z,67.59
2023-04-21T18:32:36.558Z,68.02
2023-04-21T18:35:04.623Z,67.84
2023-04-21T18:37:31.335Z,68.22
2023-04-21T18:39:57.811Z,68.91
2023-04-21T18:42:25.385Z,68.70
2023-04-21T18:44:52.758Z,68.49
2023-04-21T18:47:20.861Z,68.60
2023-04-21T18:49:47.520Z,68.24
2023-04-21T18:52:14.344Z,67.88
2023-04-21T18:54:41.030Z,68.92
2023-04-21T18:57:08.341Z,69.17
2023-04-21T18:59:35.492Z,68.35
2023-04-21T19:02:03.963Z,69.29
2023-04-21T19:04:31.289Z,68.74
2023-04-21T19:06:58.663Z,68.71
2023-04-21T19:09:27.228Z,68.44
2023-04-21T19:11:53.768Z,68.36
2023-04-21T19:14:20.358Z,68.54
2023-04-21T19:16:48.794Z,69.72
2023-04-21T19:19:15.757Z,69.05
2023-04-21T19:21:42.258Z,68.68
2023-04-21T19:24:08.876Z,68.04
2023-04-21T19:26:35.927Z,67.95
2023-04-21T19:29:02.446Z,68.27
2023-04-21T19:31:29.002Z,68.41
2023-04-21T19:33:55.645Z,68.65
2023-04-21T19:36:22.378Z,68.36
2023-04-21T19:38:49.790Z,68.41
2023-04-21T19:41:16.354Z,68.30
2023-04-21T19:43:43.034Z,68.40
2023-04-21T19:46:10.271Z,68.17
2023-04-21T19:48:39.959Z,67.98
2023-04-21T19:51:08.628Z,67.98
2023-04-21T19:53:35.188Z,68.07
2023-04-21T19:56:01.824Z,67.49
2023-04-21T19:58:39.544Z,67.77
2023-04-21T20:01:07.815Z,67.70
2023-04-21T20:03:34.858Z,67.48
2023-04-21T20:06:02.214Z,67.08
2023-04-21T20:08:29.605Z,66.84
2023-04-21T20:10:56.344Z,66.82
2023-04-21T20:13:24.468Z,66.45
2023-04-21T20:15:51.524Z,66.86
2023-04-21T20:18:18.383Z,66.64
2023-04-21T20:20:46.466Z,66.63
2023-04-21T20:23:13.427Z,66.05
2023-04-21T20:25:40.156Z,68.16
2023-04-21T20:28:06.843Z,69.72
2023-04-21T20:30:33.575Z,68.38
2023-04-21T20:33:00.540Z,71.54
2023-04-21T20:35:27.164Z,75.45
2023-04-21T20:37:54.087Z,73.85
2023-04-21T20:40:21.612Z,71.54
2023-04-21T20:42:48.830Z,69.33
2023-04-21T20:45:17.516Z,66.46
2023-04-21T20:47:44.258Z,65.32
2023-04-21T20:50:11.043Z,64.05
2023-04-21T20:52:37.814Z,61.65
2023-04-21T20:55:04.812Z,60.25
2023-04-21T20:57:31.490Z,60.99
2023-04-21T20:59:58.115Z,60.92
2023-04-21T21:02:24.958Z,59.51
2023-04-21T21:04:51.633Z,58.91
2023-04-21T21:07:18.262Z,59.27
2023-04-21T21:09:45.093Z,60.10
2023-04-21T21:12:11.795Z,59.78
2023-04-21T21:14:38.974Z,59.94
2023-04-21T21:17:05.765Z,59.69
2023-04-21T21:19:32.475Z,60.30
2023-04-21T21:21:59.076Z,61.00
2023-04-21T21:24:26.826Z,60.03
2023-04-21T21:26:53.384Z,60.03
2023-04-21T21:29:20.216Z,61.97
2023-04-21T21:31:46.927Z,61.07
2023-04-21T21:34:13.664Z,60.13
2023-04-21T21:36:40.431Z,60.39
2023-04-21T21:39:09.612Z,59.85
2023-04-21T21:41:38.224Z,59.68
2023-04-21T21:44:04.844Z,59.59
2023-04-21T21:46:31.557Z,59.23
2023-04-21T21:48:58.172Z,59.34
2023-04-21T21:51:24.886Z,59.11
2023-04-21T21:53:51.669Z,59.12
2023-04-21T21:56:18.209Z,58.85
2023-04-21T21:58:44.730Z,58.86
2023-04-21T22:01:11.595Z,58.83
2023-04-21T22:03:38.541Z,58.48
2023-04-21T22:06:06.203Z,58.44
2023-04-21T22:08:32.965Z,58.23
2023-04-21T22:10:59.947Z,58.31
2023-04-21T22:13:26.852Z,58.63
2023-04-21T22:15:53.659Z,58.11
2023-04-21T22:18:21.062Z,58.28
2023-04-21T22:20:47.754Z,59.09
2023-04-21T22:23:14.657Z,58.19
2023-04-21T22:25:41.245Z,58.64
2023-04-21T22:28:07.861Z,58.29
2023-04-21T22:30:34.459Z,58.87
2023-04-21T22:33:01.284Z,58.85
2023-04-21T22:35:27.916Z,59.20
2023-04-21T22:37:54.477Z,59.83
2023-04-21T22:40:21.268Z,59.60
2023-04-21T22:42:47.966Z,59.53
2023-04-21T22:45:14.708Z,59.43
2023-04-21T22:47:41.413Z,59.71
2023-04-21T22:50:09.379Z,59.47
2023-04-21T22:52:36.428Z,59.14
2023-04-21T22:55:05.136Z,59.55
2023-04-21T22:57:32.556Z,59.39
2023-04-21T22:59:59.240Z,59.72
2023-04-21T23:02:26.592Z,59.55
2023-04-21T23:04:54.293Z,59.73
2023-04-21T23:07:21.316Z,60.33
2023-04-21T23:09:48.335Z,59.52
2023-04-21T23:12:14.817Z,59.15
2023-04-21T23:14:41.312Z,59.19
2023-04-21T23:17:07.856Z,59.33
2023-04-21T23:19:34.498Z,59.51
2023-04-21T23:22:01.092Z,59.90
2023-04-21T23:24:28.071Z,60.16
2023-04-21T23:26:54.701Z,59.74
2023-04-21T23:29:21.558Z,59.77
2023-04-21T23:31:48.156Z,59.98
2023-04-21T23:34:15.412Z,59.88
2023-04-21T23:36:42.138Z,59.99
2023-04-21T23:39:09.898Z,60.30
2023-04-21T23:41:36.562Z,60.56
2023-04-21T23:44:03.083Z,60.46
2023-04-21T23:46:29.707Z,60.25
2023-04-21T23:48:56.347Z,60.92
2023-04-21T23:51:23.123Z,60.85
2023-04-21T23:53:49.844Z,60.42
2023-04-21T23:56:17.105Z,60.95
2023-04-21T23:58:43.743Z,60.72
